M.v. Eagle — WCX5125 — position and weather

sailwx.info

Track history (hours):
 
Tides and Currents Weather Stations Pressure Air Temp Water Temp Dewpoint Dewpoint Depression Visibility Wind Speed Wind Dir Waves Ship Positions

M.v. Eagle

Owner: WOODS HOLE, MARTHA'S VINEYARD AND NANTUCKET STEAMSHIP AUTHORITY, WOODS HOLE, MA. More information available from US FCC via Universal Licensing System and Coast Guard Vessel Documentation Center.

Last reported at 2018-Jun-23 12:00 UTC. Time now 2018-Jun-23 12:24 UTC.
Position N 41°35' W 070°16'.

Length 66 m; draft 3.2 m.

Type: Ship. MMSI: 367174060.

Date/timePositionNaut miles runAvg speedWind from/ knotsBaromVisibWave heightAir tempDewpointWater temp
2018-Jun-23 12:00N 41°35' W 070°16'713.7
2018-Jun-23 11:30N 41°29' W 070°11'713.7
2018-Jun-23 11:00N 41°22' W 070°08'3 0.3
2018-Jun-23 01:58N 41°20' W 070°07'913.4
2018-Jun-23 01:17N 41°28' W 070°12'  
2018-Jun-18 11:22N 41°27' W 070°11'11 3.9
2018-Jun-18 08:37N 41°17' W 070°06'0 0.0
2018-Jun-18 05:05N 41°17' W 070°06'0 0.1
2018-Jun-18 05:00N 41°17' W 070°06'0 0.0
2018-Jun-18 04:30N 41°17' W 070°06'0 0.0
2018-Jun-18 03:55N 41°17' W 070°06'2 1.1
2018-Jun-18 01:55N 41°19' W 070°07'12 0.8
2018-Jun-17 11:36N 41°30' W 070°13'213.8
2018-Jun-17 11:27N 41°28' W 070°11'  
Track history (hours):
 
Tides and Currents Weather Stations Pressure Air Temp Water Temp Dewpoint Dewpoint Depression Visibility Wind Speed Wind Dir Waves Ship Positions

M.v. Eagle

Owner: WOODS HOLE, MARTHA'S VINEYARD AND NANTUCKET STEAMSHIP AUTHORITY, WOODS HOLE, MA. More information available from US FCC via Universal Licensing System and Coast Guard Vessel Documentation Center.

Last reported at 2018-Jun-23 12:00 UTC. Time now 2018-Jun-23 12:24 UTC.
Position N 41°35' W 070°16'.

Length 66 m; draft 3.2 m.

Type: Ship. MMSI: 367174060.

Date/timePositionNaut miles runAvg speedWind from/ knotsBaromVisibWave heightAir tempDewpointWater temp
2018-Jun-23 12:00N 41°35' W 070°16'713.7
2018-Jun-23 11:30N 41°29' W 070°11'713.7
2018-Jun-23 11:00N 41°22' W 070°08'3 0.3
2018-Jun-23 01:58N 41°20' W 070°07'913.4
2018-Jun-23 01:17N 41°28' W 070°12'  
2018-Jun-18 11:22N 41°27' W 070°11'11 3.9
2018-Jun-18 08:37N 41°17' W 070°06'0 0.0
2018-Jun-18 05:05N 41°17' W 070°06'0 0.1
2018-Jun-18 05:00N 41°17' W 070°06'0 0.0
2018-Jun-18 04:30N 41°17' W 070°06'0 0.0
2018-Jun-18 03:55N 41°17' W 070°06'2 1.1
2018-Jun-18 01:55N 41°19' W 070°07'12 0.8
2018-Jun-17 11:36N 41°30' W 070°13'213.8
2018-Jun-17 11:27N 41°28' W 070°11'  

Dump ship's entire track history